Time;durP1;ratioP1;P1;durP2;ratioP2;P2;SDS_P1;SDS_P2;PMS_P1;PMS_P2;Temp;Humidity;BMP_temperature;BMP_pressure;BME280_temperature;BME280_humidity;BME280_pressure;Samples;Min_cycle;Max_cycle;Signal;HPM_P1;HPM_P2
2022/11/07 00:01:47;;;;;;;67.50;39.38;;;;;;;4.15;100.00;99483.59;4897501;29;20449;-82
2022/11/07 00:04:13;;;;;;;70.63;40.45;;;;;;;4.20;100.00;99492.06;4880322;29;20084;-82
2022/11/07 00:06:38;;;;;;;62.35;39.10;;;;;;;4.14;100.00;99474.19;4897620;29;20425;-82
2022/11/07 00:09:04;;;;;;;60.92;33.85;;;;;;;4.19;100.00;99481.81;4897927;29;20368;-82
2022/11/07 00:11:29;;;;;;;61.38;34.13;;;;;;;4.20;100.00;99479.19;4897183;29;20020;-82
2022/11/07 00:13:55;;;;;;;58.60;33.97;;;;;;;4.13;100.00;99457.03;4897416;29;20028;-82
2022/11/07 00:16:20;;;;;;;56.63;34.72;;;;;;;4.22;100.00;99474.84;4897132;29;20107;-82
2022/11/07 00:18:45;;;;;;;65.43;38.42;;;;;;;4.14;100.00;99475.94;4897206;29;20028;-82
2022/11/07 00:21:11;;;;;;;65.65;38.83;;;;;;;4.15;100.00;99475.88;4896980;29;20377;-82
2022/11/07 00:23:39;;;;;;;74.00;43.83;;;;;;;4.14;100.00;99474.19;4880457;29;20063;-82
2022/11/07 00:26:11;;;;;;;63.60;37.28;;;;;;;4.10;100.00;99476.88;4897301;29;20077;-82
2022/11/07 00:28:39;;;;;;;76.28;43.35;;;;;;;4.11;100.00;99487.13;4897167;29;20025;-82
2022/11/07 00:31:06;;;;;;;66.10;39.10;;;;;;;4.07;100.00;99498.41;4897009;29;20359;-82
2022/11/07 00:33:32;;;;;;;70.97;40.22;;;;;;;4.03;100.00;99495.94;4897270;29;20029;-82
2022/11/07 00:35:57;;;;;;;64.45;38.40;;;;;;;4.04;100.00;99498.47;4879944;29;20029;-82
2022/11/07 00:38:23;;;;;;;71.35;40.03;;;;;;;4.01;100.00;99495.97;4896951;29;20476;-81
2022/11/07 00:40:59;;;;;;;68.15;38.65;;;;;;;3.96;100.00;99484.91;4896925;29;20041;-82
2022/11/07 00:43:25;;;;;;;66.85;36.92;;;;;;;3.98;100.00;99485.72;4896698;29;20498;-82
2022/11/07 00:45:51;;;;;;;62.90;37.20;;;;;;;3.98;100.00;99481.41;4880058;29;20064;-82
2022/11/07 00:48:16;;;;;;;67.82;42.08;;;;;;;3.95;100.00;99478.91;4896909;29;20033;-82
2022/11/07 00:50:42;;;;;;;74.93;43.08;;;;;;;3.95;100.00;99480.63;4897014;29;20024;-82
2022/11/07 00:53:08;;;;;;;61.60;37.55;;;;;;;3.96;100.00;99474.59;4896766;29;20046;-82
2022/11/07 00:55:33;;;;;;;59.30;35.53;;;;;;;3.88;100.00;99466.22;4880152;29;20643;-82
2022/11/07 00:57:59;;;;;;;62.50;36.85;;;;;;;3.84;100.00;99459.44;4896972;29;20052;-82
2022/11/07 01:00:24;;;;;;;68.03;39.10;;;;;;;3.90;100.00;99470.44;4879711;29;20487;-82
2022/11/07 01:05:09;;;;;;;65.18;39.45;;;;;;;3.88;100.00;99461.91;4880237;29;20425;-82
2022/11/07 01:05:35;;;;;;;70.53;37.60;;;;;;;3.85;100.00;99450.81;4896682;29;20028;-82
2022/11/07 01:08:01;;;;;;;67.63;40.22;;;;;;;3.83;100.00;99452.56;4880002;29;20020;-82
2022/11/07 01:10:26;;;;;;;67.20;38.42;;;;;;;3.89;100.00;99461.00;4896664;29;20029;-82
2022/11/07 01:12:51;;;;;;;66.45;38.55;;;;;;;3.83;100.00;99453.41;4896611;29;20118;-82
2022/11/07 01:15:17;;;;;;;56.78;34.33;;;;;;;3.83;100.00;99448.25;4896676;29;20468;-82
2022/11/07 01:17:42;;;;;;;57.05;35.38;;;;;;;3.89;100.00;99450.72;4896878;29;20028;-82
2022/11/07 01:20:08;;;;;;;58.03;35.65;;;;;;;3.90;100.00;99444.66;4879807;29;20028;-82
2022/11/07 01:22:34;;;;;;;55.65;34.17;;;;;;;3.83;100.00;99422.50;4896384;29;20440;-82
2022/11/07 01:24:59;;;;;;;53.38;30.88;;;;;;;3.96;100.00;99431.66;4896581;29;20100;-82
2022/11/07 01:27:24;;;;;;;53.58;30.48;;;;;;;3.98;100.00;99421.31;4879537;29;20564;-81
2022/11/07 01:29:50;;;;;;;53.00;31.42;;;;;;;3.94;100.00;99420.53;4896716;29;20029;-82
2022/11/07 01:32:15;;;;;;;49.75;32.25;;;;;;;3.99;100.00;99415.25;4879700;29;20024;-82
2022/11/07 01:34:41;;;;;;;51.05;31.35;;;;;;;3.96;100.00;99416.19;4896674;29;20025;-82
2022/11/07 01:37:06;;;;;;;56.88;34.83;;;;;;;3.98;100.00;99409.25;4896589;29;20460;-82
2022/11/07 01:39:32;;;;;;;52.72;31.98;;;;;;;3.93;100.00;99398.22;4879451;29;20025;-82
2022/11/07 01:41:57;;;;;;;61.97;37.95;;;;;;;3.99;100.00;99415.25;4896508;29;20032;-82
2022/11/07 01:44:23;;;;;;;60.03;34.58;;;;;;;3.99;100.00;99410.09;4856517;29;20107;-82
2022/11/07 01:46:49;;;;;;;63.30;37.42;;;;;;;3.90;100.00;99394.88;4856890;29;20033;-82
2022/11/07 01:49:31;;;;;;;57.95;34.13;;;;;;;3.97;100.00;99401.59;4859733;29;20097;-82
2022/11/07 01:52:03;;;;;;;57.90;37.20;;;;;;;3.96;100.00;99394.72;4860159;29;20029;-82
2022/11/07 01:54:40;;;;;;;66.40;36.72;;;;;;;3.91;100.00;99387.09;4859889;29;20029;-82
2022/11/07 01:57:12;;;;;;;65.20;37.10;;;;;;;3.87;100.00;99372.59;4860151;29;20048;-82
2022/11/07 01:59:39;;;;;;;56.78;33.95;;;;;;;3.92;100.00;99383.66;4860180;29;20104;-82
2022/11/07 02:02:06;;;;;;;61.13;36.75;;;;;;;3.85;100.00;99365.81;4860052;29;20117;-82
2022/11/07 02:04:31;;;;;;;55.45;33.53;;;;;;;3.86;100.00;99362.34;4844333;29;20489;-82
2022/11/07 02:07:06;;;;;;;59.92;32.45;;;;;;;3.90;100.00;99358.81;4844387;29;20025;-82
2022/11/07 02:09:31;;;;;;;50.38;32.08;;;;;;;3.92;100.00;99355.31;4860188;29;20056;-81
2022/11/07 02:11:59;;;;;;;54.38;33.65;;;;;;;3.92;100.00;99359.63;4844498;29;20026;-82
2022/11/07 02:14:26;;;;;;;58.15;34.13;;;;;;;3.96;100.00;99356.06;4844366;29;20502;-82
2022/11/07 02:16:53;;;;;;;57.67;33.85;;;;;;;3.99;100.00;99358.56;4844377;29;20112;-82
2022/11/07 02:20:05;;;;;;;58.95;35.15;;;;;;;4.02;100.00;99353.34;4859529;29;20381;-82
2022/11/07 02:22:39;;;;;;;52.13;32.28;;;;;;;4.05;100.00;99363.59;4800652;29;20509;-82
2022/11/07 02:25:07;;;;;;;55.60;34.58;;;;;;;4.05;100.00;99365.31;4804685;29;20066;-82
2022/11/07 02:27:34;;;;;;;49.50;33.47;;;;;;;4.02;100.00;99368.81;4804564;29;20172;-82
2022/11/07 02:30:04;;;;;;;48.38;30.35;;;;;;;4.03;100.00;99362.75;4804697;29;20113;-82
2022/11/07 02:32:30;;;;;;;54.40;31.70;;;;;;;4.10;100.00;99374.63;4804369;29;20037;-82
2022/11/07 02:35:00;;;;;;;47.50;29.98;;;;;;;4.14;100.00;99380.56;4789595;29;20035;-82
2022/11/07 02:37:36;;;;;;;49.38;31.17;;;;;;;4.18;100.00;99387.34;4804503;29;20035;-82
2022/11/07 02:40:05;;;;;;;46.05;30.48;;;;;;;4.17;100.00;99376.19;4804669;29;20058;-82
2022/11/07 02:42:42;;;;;;;46.58;29.33;;;;;;;4.26;100.00;99382.84;4804155;29;20135;-82
2022/11/07 02:45:20;;;;;;;48.15;29.75;;;;;;;4.28;100.00;99375.03;4804347;29;20070;-82
2022/11/07 02:47:46;;;;;;;47.58;29.75;;;;;;;4.31;100.00;99364.66;4804508;29;20038;-82
2022/11/07 02:50:13;;;;;;;48.88;27.70;;;;;;;4.29;100.00;99359.53;4804395;29;20489;-82
2022/11/07 02:52:39;;;;;;;41.63;28.35;;;;;;;4.28;100.00;99360.44;4804216;29;20071;-82
2022/11/07 02:55:06;;;;;;;40.38;26.48;;;;;;;4.34;100.00;99373.16;4804363;29;20472;-82
2022/11/07 02:57:31;;;;;;;46.58;26.92;;;;;;;4.39;100.00;99362.75;4804358;29;20035;-82
2022/11/07 02:59:56;;;;;;;45.97;27.88;;;;;;;4.48;100.00;99376.22;4831601;29;20378;-82
2022/11/07 03:02:23;;;;;;;40.50;25.48;;;;;;;4.50;100.00;99382.19;4861061;29;20035;-82
2022/11/07 03:04:49;;;;;;;39.65;24.55;;;;;;;4.54;100.00;99389.84;4844539;29;20025;-82
2022/11/07 03:07:15;;;;;;;37.63;25.25;;;;;;;4.54;100.00;99384.69;4861227;29;20547;-82
2022/11/07 03:09:40;;;;;;;40.10;25.80;;;;;;;4.56;100.00;99388.09;4860823;29;20104;-82
2022/11/07 03:12:06;;;;;;;42.00;26.65;;;;;;;4.57;100.00;99390.63;4861282;29;20030;-82
2022/11/07 03:14:31;;;;;;;40.97;26.67;;;;;;;4.61;100.00;99401.69;4844228;29;20040;-82
2022/11/07 03:16:56;;;;;;;39.50;25.45;;;;;;;4.60;100.00;99400.84;4861175;29;20025;-82
2022/11/07 03:19:22;;;;;;;40.83;25.80;;;;;;;4.62;100.00;99395.66;4860879;29;20057;-82
2022/11/07 03:21:51;;;;;;;36.65;24.02;;;;;;;4.61;100.00;99397.38;4862569;29;20053;-82
2022/11/07 03:24:17;;;;;;;41.78;26.27;;;;;;;4.55;100.00;99389.81;4862591;29;20048;-82
2022/11/07 03:26:42;;;;;;;43.47;27.88;;;;;;;4.58;100.00;99394.88;4879703;29;20037;-82
2022/11/07 03:29:08;;;;;;;42.50;26.70;;;;;;;4.54;100.00;99390.69;4879644;29;20032;-82
2022/11/07 03:31:34;;;;;;;37.63;25.27;;;;;;;4.52;100.00;99394.22;4879510;29;20164;-82
2022/11/07 03:33:59;;;;;;;62.50;38.17;;;;;;;4.55;100.00;99401.84;4879746;29;20029;-82
2022/11/07 03:36:25;;;;;;;62.53;36.88;;;;;;;4.55;100.00;99396.69;4879315;29;20028;-82
2022/11/07 03:38:50;;;;;;;71.68;44.50;;;;;;;4.53;100.00;99394.16;4879251;29;20017;-82
2022/11/07 03:41:16;;;;;;;60.17;39.83;;;;;;;4.48;100.00;99386.53;4879451;29;20033;-82
2022/11/07 03:43:45;;;;;;;54.55;33.08;;;;;;;4.53;100.00;99394.16;4862480;29;20025;-82
2022/11/07 03:46:15;;;;;;;58.95;38.08;;;;;;;4.45;100.00;99389.19;4879312;29;20037;-82
2022/11/07 03:48:41;;;;;;;62.30;35.13;;;;;;;4.47;100.00;99408.06;4879297;29;20028;-82
2022/11/07 03:51:10;;;;;;;54.10;34.03;;;;;;;4.41;100.00;99397.06;4879032;29;20073;-82
2022/11/07 03:53:36;;;;;;;45.47;30.53;;;;;;;4.40;100.00;99410.84;4878859;29;20073;-82
2022/11/07 03:56:09;;;;;;;58.05;33.60;;;;;;;4.28;100.00;99396.50;4879156;29;20028;-82
2022/11/07 03:58:35;;;;;;;60.17;34.25;;;;;;;4.36;100.00;99410.06;4878813;29;20119;-82
2022/11/07 04:01:01;;;;;;;52.85;30.45;;;;;;;4.31;100.00;99405.91;4879034;29;20532;-82
2022/11/07 04:03:26;;;;;;;32.67;23.30;;;;;;;4.26;100.00;99395.72;4878675;29;20104;-82
2022/11/07 04:05:52;;;;;;;42.50;26.48;;;;;;;4.32;100.00;99408.44;4878729;29;20100;-82
2022/11/07 04:08:17;;;;;;;46.95;26.48;;;;;;;4.24;100.00;99382.84;4878951;29;20693;-82
2022/11/07 04:10:43;;;;;;;75.07;42.13;;;;;;;4.31;100.00;99399.03;4861144;29;20048;-82
2022/11/07 04:18:38;;;;;;;50.88;29.27;;;;;;;4.44;100.00;99409.88;4878678;29;20109;-82
2022/11/07 04:21:03;;;;;;;62.70;34.22;;;;;;;4.41;100.00;99405.63;4861628;29;20120;-82
2022/11/07 04:23:28;;;;;;;67.38;37.83;;;;;;;4.49;100.00;99408.84;4861629;29;20021;-82
2022/11/07 04:28:38;;;;;;;76.15;41.72;;;;;;;4.53;100.00;99395.91;4878579;29;20035;-82
2022/11/07 04:31:03;;;;;;;75.53;39.38;;;;;;;4.57;100.00;99403.50;4878495;29;20037;-82
2022/11/07 04:33:29;;;;;;;78.72;44.70;;;;;;;4.59;100.00;99408.63;4878406;29;20377;-82
2022/11/07 04:35:54;;;;;;;61.63;35.85;;;;;;;4.57;100.00;99400.94;4861829;29;20423;-82
2022/11/07 04:38:19;;;;;;;51.25;31.35;;;;;;;4.59;100.00;99398.31;4861705;29;20037;-82
2022/11/07 04:40:51;;;;;;;56.13;32.47;;;;;;;4.59;100.00;99400.88;4878236;29;20432;-82
2022/11/07 04:43:17;;;;;;;55.72;31.40;;;;;;;4.62;100.00;99413.72;4861697;29;20036;-82
2022/11/07 04:45:42;;;;;;;51.13;30.38;;;;;;;4.57;100.00;99392.34;4878632;29;20060;-82
2022/11/07 04:48:09;;;;;;;40.90;26.05;;;;;;;4.56;100.00;99382.94;4878416;29;20032;-82
2022/11/07 04:50:34;;;;;;;42.20;26.30;;;;;;;4.67;100.00;99401.53;4878035;29;20025;-82
2022/11/07 04:53:00;;;;;;;54.85;37.13;;;;;;;4.60;100.00;99380.22;4861533;29;20025;-82
2022/11/07 04:55:29;;;;;;;49.20;36.50;;;;;;;4.71;100.00;99398.81;4861310;29;20025;-82
2022/11/07 04:57:54;;;;;;;50.22;35.72;;;;;;;4.73;100.00;99388.47;4878000;29;20057;-82
2022/11/07 05:00:20;;;;;;;52.33;33.80;;;;;;;4.75;100.00;99384.09;4861594;29;20033;-82
2022/11/07 05:02:47;;;;;;;48.38;32.67;;;;;;;4.78;100.00;99394.34;4878022;29;20370;-82
2022/11/07 05:05:12;;;;;;;35.75;25.15;;;;;;;4.72;100.00;99377.31;4861473;29;20033;-82
2022/11/07 05:07:38;;;;;;;34.03;24.35;;;;;;;4.84;100.00;99389.00;4861130;29;20048;-82
2022/11/07 05:10:05;;;;;;;36.88;24.23;;;;;;;4.89;100.00;99392.34;4861326;29;20029;-82
2022/11/07 05:12:30;;;;;;;41.17;26.08;;;;;;;4.91;100.00;99395.72;4877704;29;20029;-82
2022/11/07 05:14:55;;;;;;;31.70;23.30;;;;;;;4.92;100.00;99396.53;4861443;29;20130;-82
2022/11/07 05:17:21;;;;;;;34.83;22.23;;;;;;;4.95;100.00;99406.78;4878449;29;20025;-82
2022/11/07 05:19:46;;;;;;;29.92;20.90;;;;;;;4.91;100.00;99397.44;4861130;29;20124;-82
2022/11/07 05:24:56;;;;;;;31.05;20.27;;;;;;;5.02;100.00;99412.66;4881552;29;20032;-82
2022/11/07 05:27:21;;;;;;;34.75;20.77;;;;;;;5.04;100.00;99413.44;4865043;29;20025;-82
2022/11/07 05:29:47;;;;;;;35.22;22.05;;;;;;;5.08;100.00;99402.13;4881738;29;20033;-82
2022/11/07 05:32:13;;;;;;;53.33;32.15;;;;;;;5.09;100.00;99411.56;4881532;29;20381;-82
2022/11/07 05:34:39;;;;;;;33.00;23.58;;;;;;;5.10;100.00;99405.50;4881331;29;20073;-82
2022/11/07 05:37:08;;;;;;;32.72;22.20;;;;;;;5.13;100.00;99408.00;4881504;29;20183;-82
2022/11/07 05:39:34;;;;;;;34.38;24.58;;;;;;;5.11;100.00;99402.91;4864394;29;20085;-82
2022/11/07 05:42:00;;;;;;;32.92;22.23;;;;;;;5.16;100.00;99413.94;4881372;29;20033;-82
2022/11/07 05:44:25;;;;;;;34.00;22.15;;;;;;;5.18;100.00;99414.75;4881501;29;20029;-82
2022/11/07 05:46:51;;;;;;;30.77;20.85;;;;;;;5.20;100.00;99418.13;4864363;29;20532;-82
2022/11/07 05:49:16;;;;;;;31.48;21.80;;;;;;;5.17;100.00;99413.03;4881329;29;20025;-82
2022/11/07 05:51:42;;;;;;;33.83;22.05;;;;;;;5.21;100.00;99432.72;4864312;29;20034;-82
2022/11/07 05:54:07;;;;;;;34.47;20.77;;;;;;;5.25;100.00;99436.06;4864348;29;20073;-82
2022/11/07 05:56:33;;;;;;;29.27;20.35;;;;;;;5.24;100.00;99442.13;4864433;29;20040;-82
2022/11/07 05:58:58;;;;;;;30.40;19.95;;;;;;;5.30;100.00;99448.84;4881266;29;20025;-82
2022/11/07 06:01:24;;;;;;;32.90;20.92;;;;;;;5.27;100.00;99444.63;4880993;29;20032;-82
2022/11/07 06:03:49;;;;;;;28.50;19.15;;;;;;;5.26;100.00;99445.50;4880935;29;20036;-82
2022/11/07 06:06:14;;;;;;;29.52;20.63;;;;;;;5.32;100.00;99460.00;4881256;29;20056;-82
2022/11/07 06:08:40;;;;;;;33.15;20.70;;;;;;;5.32;100.00;99453.09;4880516;29;20024;-82
2022/11/07 06:11:05;;;;;;;32.65;21.38;;;;;;;5.31;100.00;99456.56;4880914;29;20036;-82
2022/11/07 06:13:31;;;;;;;34.38;22.50;;;;;;;5.36;100.00;99470.19;4880750;29;20465;-82
2022/11/07 06:15:56;;;;;;;32.72;22.08;;;;;;;5.36;100.00;99462.44;4864127;29;20025;-82
2022/11/07 06:18:22;;;;;;;31.65;22.65;;;;;;;5.38;100.00;99465.81;4863944;29;20027;-82
2022/11/07 06:20:48;;;;;;;31.10;21.10;;;;;;;5.43;100.00;99471.69;4880365;29;20060;-82
2022/11/07 06:23:14;;;;;;;37.25;22.35;;;;;;;5.38;100.00;99465.81;4880934;29;20369;-82
2022/11/07 06:25:39;;;;;;;35.58;22.10;;;;;;;5.53;100.00;99482.63;4880329;29;20104;-82
2022/11/07 06:28:07;;;;;;;40.33;22.77;;;;;;;5.56;100.00;99486.84;4880627;29;20029;-82
2022/11/07 06:30:34;;;;;;;39.55;25.95;;;;;;;5.61;100.00;99485.00;4863498;29;20111;-82
2022/11/07 06:33:01;;;;;;;37.30;24.45;;;;;;;5.63;100.00;99489.22;4879746;29;20029;-82
2022/11/07 06:35:27;;;;;;;40.85;26.88;;;;;;;5.68;100.00;99499.41;4880396;29;20138;-82
2022/11/07 06:37:52;;;;;;;38.60;24.00;;;;;;;5.69;100.00;99493.38;4863341;29;20065;-82
2022/11/07 06:40:18;;;;;;;38.70;26.08;;;;;;;5.78;100.00;99508.59;4863828;29;20153;-82
2022/11/07 06:42:43;;;;;;;36.65;24.55;;;;;;;5.79;100.00;99514.63;4863455;29;20040;-82
2022/11/07 06:45:10;;;;;;;39.45;25.88;;;;;;;5.80;100.00;99506.81;4863636;29;20313;-82
2022/11/07 06:47:36;;;;;;;51.15;38.60;;;;;;;5.74;100.00;99502.66;4863278;29;20194;-82
2022/11/07 06:50:01;;;;;;;55.80;40.60;;;;;;;5.84;100.00;99510.16;4880057;29;20230;-82
2022/11/07 06:52:27;;;;;;;58.47;40.63;;;;;;;5.86;100.00;99521.31;4880235;29;20033;-82
2022/11/07 06:54:52;;;;;;;58.97;43.58;;;;;;;5.83;100.00;99514.47;4880189;29;20060;-83
2022/11/07 06:57:18;;;;;;;63.78;47.30;;;;;;;5.79;100.00;99509.44;4880047;29;20092;-82
2022/11/07 06:59:43;;;;;;;54.97;38.97;;;;;;;5.81;100.00;99515.41;4863114;29;20051;-82
2022/11/07 07:02:12;;;;;;;53.55;39.72;;;;;;;5.88;100.00;99530.69;4863204;29;20397;-82
2022/11/07 07:04:37;;;;;;;60.03;40.50;;;;;;;5.88;100.00;99532.44;4862854;29;20048;-82
2022/11/07 07:07:03;;;;;;;63.38;41.92;;;;;;;5.89;100.00;99523.78;4879806;29;20032;-82
2022/11/07 07:09:28;;;;;;;54.05;36.38;;;;;;;5.91;100.00;99533.19;4880277;29;20036;-82
2022/11/07 07:11:53;;;;;;;61.45;37.50;;;;;;;5.93;100.00;99546.94;4863001;29;20064;-82
2022/11/07 07:14:19;;;;;;;64.57;38.58;;;;;;;5.96;100.00;99541.69;4879933;29;20021;-82
2022/11/07 07:16:44;;;;;;;82.85;43.33;;;;;;;5.98;100.00;99537.31;4862765;29;20120;-82
2022/11/07 07:19:11;;;;;;;81.22;44.30;;;;;;;6.05;100.00;99547.47;4862855;29;20029;-82
2022/11/07 07:21:36;;;;;;;78.65;41.88;;;;;;;6.10;100.00;99549.03;4862400;29;20488;-82
2022/11/07 07:24:02;;;;;;;78.90;42.35;;;;;;;6.15;100.00;99544.59;4879629;29;20017;-82
2022/11/07 07:26:27;;;;;;;69.68;39.88;;;;;;;6.28;100.00;99573.50;4879942;29;20347;-82
2022/11/07 07:28:52;;;;;;;69.85;39.78;;;;;;;6.30;100.00;99560.50;4879343;29;20033;-82
2022/11/07 07:31:23;;;;;;;64.18;40.13;;;;;;;6.33;100.00;99576.78;4862638;29;20033;-82
2022/11/07 07:33:48;;;;;;;60.83;37.30;;;;;;;6.26;100.00;99552.00;4879474;29;20048;-82
2022/11/07 07:36:14;;;;;;;58.85;33.75;;;;;;;6.35;100.00;99569.81;4862307;29;20068;-82
2022/11/07 07:38:39;;;;;;;44.80;30.73;;;;;;;6.35;100.00;99577.56;4878917;29;20036;-82
2022/11/07 07:41:08;;;;;;;36.78;24.77;;;;;;;6.25;100.00;99578.75;4879538;29;20029;-82
2022/11/07 07:43:33;;;;;;;37.97;23.92;;;;;;;6.17;100.00;99585.91;4879398;29;20033;-82
2022/11/07 07:46:00;;;;;;;28.40;19.95;;;;;;;6.07;100.00;99587.03;4862163;29;20523;-82
2022/11/07 07:48:26;;;;;;;32.35;22.20;;;;;;;6.01;100.00;99595.84;4861951;29;20061;-82
2022/11/07 07:50:52;;;;;;;41.03;27.08;;;;;;;5.97;100.00;99595.06;4878709;29;20029;-82
2022/11/07 07:53:17;;;;;;;53.33;31.75;;;;;;;5.99;100.00;99598.47;4879545;29;20024;-82
2022/11/07 07:55:43;;;;;;;36.63;21.85;;;;;;;5.97;100.00;99591.66;4879195;29;20203;-82
2022/11/07 07:58:10;;;;;;;30.40;22.13;;;;;;;5.95;100.00;99583.09;4862282;29;20027;-82
2022/11/07 08:00:35;;;;;;;36.42;22.17;;;;;;;6.05;100.00;99584.50;4862038;29;20370;-82
2022/11/07 08:03:03;;;;;;;47.85;32.50;;;;;;;6.17;100.00;99594.50;4879311;29;20032;-82
2022/11/07 08:05:29;;;;;;;48.85;32.75;;;;;;;6.19;100.00;99595.31;4862003;29;20032;-82
2022/11/07 08:07:54;;;;;;;39.00;26.40;;;;;;;6.20;100.00;99601.34;4862058;29;20057;-82
2022/11/07 08:10:19;;;;;;;35.30;24.30;;;;;;;6.32;100.00;99603.56;4862114;29;20036;-82
2022/11/07 08:12:47;;;;;;;31.90;20.15;;;;;;;6.22;100.00;99591.78;4860348;29;20039;-82
2022/11/07 08:15:13;;;;;;;33.75;20.33;;;;;;;6.37;100.00;99606.00;4866703;29;20017;-83
2022/11/07 08:17:40;;;;;;;28.15;18.02;;;;;;;6.41;100.00;99611.03;4860532;29;20069;-83
2022/11/07 08:20:08;;;;;;;37.53;21.70;;;;;;;6.36;100.00;99600.00;4843390;29;20032;-83
2022/11/07 08:22:34;;;;;;;34.30;21.25;;;;;;;6.43;100.00;99617.00;4878120;29;20543;-83
2022/11/07 08:24:59;;;;;;;27.20;17.70;;;;;;;6.45;100.00;99623.00;4861550;29;20033;-83
2022/11/07 08:27:25;;;;;;;27.27;16.77;;;;;;;6.44;100.00;99612.66;4878431;29;20480;-83
2022/11/07 08:29:50;;;;;;;26.13;15.98;;;;;;;6.48;100.00;99615.09;4861571;29;20025;-83
2022/11/07 08:32:15;;;;;;;25.58;17.65;;;;;;;6.52;100.00;99623.63;4878819;29;20077;-83
2022/11/07 08:34:41;;;;;;;22.35;16.05;;;;;;;6.52;100.00;99621.03;4861540;29;20060;-83
2022/11/07 08:37:06;;;;;;;22.65;15.90;;;;;;;6.57;100.00;99615.72;4861639;29;20028;-83
2022/11/07 08:39:31;;;;;;;25.00;15.80;;;;;;;6.55;100.00;99609.75;4878465;29;20350;-83
2022/11/07 08:41:57;;;;;;;22.08;14.75;;;;;;;6.60;100.00;99621.66;4878203;29;20036;-83
2022/11/07 08:44:23;;;;;;;26.65;15.27;;;;;;;6.65;100.00;99624.09;4861649;29;20525;-83
2022/11/07 08:46:48;;;;;;;23.95;13.77;;;;;;;6.73;100.00;99629.88;4878076;29;20040;-83
2022/11/07 08:49:14;;;;;;;21.42;13.55;;;;;;;6.78;100.00;99621.97;4878207;29;20107;-83
2022/11/07 08:51:39;;;;;;;16.25;12.88;;;;;;;6.78;100.00;99616.81;4878192;29;20074;-83
2022/11/07 08:54:05;;;;;;;19.35;14.07;;;;;;;6.85;100.00;99626.06;4861588;29;20481;-83
2022/11/07 08:56:32;;;;;;;18.98;13.43;;;;;;;6.95;100.00;99620.56;4863580;29;20029;-83
2022/11/07 08:58:57;;;;;;;20.83;13.07;;;;;;;7.10;100.00;99631.31;4884226;29;20031;-83
2022/11/07 09:01:24;;;;;;;18.42;13.10;;;;;;;7.17;100.00;99630.22;4867726;29;20126;-83
2022/11/07 09:03:49;;;;;;;18.55;13.23;;;;;;;7.26;100.00;99622.13;4884094;29;20029;-83
2022/11/07 09:06:15;;;;;;;16.67;12.65;;;;;;;7.27;100.00;99613.47;4884484;29;20368;-83
2022/11/07 09:08:40;;;;;;;16.65;12.25;;;;;;;7.41;100.00;99618.16;4884235;29;20079;-83
2022/11/07 09:11:06;;;;;;;17.55;12.07;;;;;;;7.59;100.00;99629.66;4867474;29;20031;-83
2022/11/07 09:13:32;;;;;;;17.40;12.40;;;;;;;7.63;100.00;99639.88;4884420;29;20084;-83
2022/11/07 09:15:59;;;;;;;16.50;12.65;;;;;;;7.60;100.00;99637.38;4867164;29;20028;-83
2022/11/07 09:18:26;;;;;;;16.42;12.55;;;;;;;7.68;100.00;99634.53;4867525;29;20520;-83
2022/11/07 09:20:51;;;;;;;16.48;11.45;;;;;;;7.71;100.00;99635.28;4867134;29;20055;-83
2022/11/07 09:23:17;;;;;;;15.40;11.00;;;;;;;7.74;100.00;99629.97;4884230;29;20033;-83
2022/11/07 09:25:42;;;;;;;15.63;11.45;;;;;;;7.89;100.00;99627.75;4884087;29;20025;-83
2022/11/07 09:28:07;;;;;;;12.25;10.10;;;;;;;8.11;100.00;99630.41;4884201;29;20061;-82
2022/11/07 09:30:33;;;;;;;16.10;9.85;;;;;;;8.21;100.00;99629.97;4867346;29;20061;-82
2022/11/07 09:32:59;;;;;;;14.13;10.48;;;;;;;8.24;100.00;99616.06;4883805;29;20033;-82
2022/11/07 09:35:24;;;;;;;13.25;9.13;;;;;;;8.46;100.00;99629.94;4883866;29;20035;-82
2022/11/07 09:37:50;;;;;;;13.90;9.68;;;;;;;8.52;100.00;99628.03;4884440;29;20044;-82
2022/11/07 09:40:18;;;;;;;15.63;9.25;;;;;;;8.63;100.00;99644.84;4884112;29;20465;-82
2022/11/07 09:42:56;;;;;;;12.40;9.70;;;;;;;8.78;100.00;99640.84;4884140;29;20041;-82
2022/11/07 09:45:21;;;;;;;15.35;9.60;;;;;;;8.82;100.00;99637.22;4883908;29;20021;-82
2022/11/07 09:47:54;;;;;;;13.85;9.38;;;;;;;8.86;100.00;99649.16;4883757;29;20036;-82
2022/11/07 09:50:27;;;;;;;19.90;11.93;;;;;;;8.91;100.00;99643.78;4883960;29;20035;-82
2022/11/07 09:53:00;;;;;;;13.73;9.40;;;;;;;8.91;100.00;99628.22;4883835;29;20108;-83
2022/11/07 09:55:34;;;;;;;12.98;8.43;;;;;;;8.93;100.00;99644.56;4867170;29;20120;-81
2022/11/07 09:58:02;;;;;;;15.30;9.10;;;;;;;8.92;100.00;99632.50;4883861;29;20373;-82
2022/11/07 10:00:31;;;;;;;9.88;7.18;;;;;;;9.04;100.00;99633.75;4883956;29;20029;-82
2022/11/07 10:02:58;;;;;;;8.75;6.47;;;;;;;9.06;100.00;99648.38;4883677;29;20025;-82
2022/11/07 10:05:39;;;;;;;7.30;6.25;;;;;;;8.95;100.00;99635.81;4883815;29;20047;-82
2022/11/07 10:08:19;;;;;;;7.95;5.82;;;;;;;9.12;100.00;99645.53;4864485;29;20033;-83
2022/11/07 10:10:58;;;;;;;7.97;5.97;;;;;;;9.16;100.00;99646.25;4880926;29;20024;-82
2022/11/07 10:13:45;;;;;;;10.43;5.90;;;;;;;9.21;100.00;99658.13;4864073;29;20029;-82
2022/11/07 10:16:38;;;;;;;6.25;5.05;;;;;;;9.31;100.00;99653.41;4880813;29;20025;-82
2022/11/07 10:19:23;;;;;;;6.22;4.95;;;;;;;9.33;100.00;99651.59;4880725;29;20029;-83
2022/11/07 10:22:15;;;;;;;7.45;5.30;;;;;;;9.35;100.00;99657.56;4880808;29;20049;-83
2022/11/07 10:25:00;;;;;;;7.15;5.20;;;;;;;9.34;100.00;99636.84;4880582;29;20132;-83
2022/11/07 10:27:26;;;;;;;6.43;4.63;;;;;;;9.44;100.00;99652.00;4880613;29;20029;-83
2022/11/07 10:29:54;;;;;;;4.97;4.35;;;;;;;9.46;100.00;99657.97;4880424;29;20032;-83
2022/11/07 10:32:25;;;;;;;16.92;11.80;;;;;;;9.43;100.00;99652.88;4863713;29;20041;-83
2022/11/07 10:34:57;;;;;;;10.52;6.95;;;;;;;9.40;100.00;99647.84;4880539;29;20021;-83
2022/11/07 10:37:23;;;;;;;10.85;7.95;;;;;;;9.50;100.00;99659.53;4863635;29;20040;-83
2022/11/07 10:39:48;;;;;;;6.35;5.00;;;;;;;9.54;100.00;99662.00;4880013;29;20029;-83
2022/11/07 10:42:18;;;;;;;7.50;5.22;;;;;;;9.53;100.00;99663.78;4863755;29;20028;-83
2022/11/07 10:44:44;;;;;;;7.03;5.40;;;;;;;9.59;100.00;99660.06;4863604;29;20358;-83
2022/11/07 10:47:21;;;;;;;7.68;5.18;;;;;;;9.66;100.00;99659.72;4863247;29;20281;-83
2022/11/07 10:49:59;;;;;;;5.18;4.53;;;;;;;9.77;100.00;99653.22;4880001;29;20025;-83
2022/11/07 10:52:26;;;;;;;6.82;5.45;;;;;;;9.87;100.00;99655.38;4880223;29;20048;-83
2022/11/07 10:55:04;;;;;;;6.07;4.72;;;;;;;9.93;100.00;99636.88;4880052;29;20128;-83
2022/11/07 10:57:29;;;;;;;6.65;5.40;;;;;;;10.08;100.00;99642.31;4880498;29;20043;-83
2022/11/07 10:59:58;;;;;;;7.13;5.85;;;;;;;10.12;100.00;99629.09;4863124;29;20373;-83
2022/11/07 11:02:25;;;;;;;7.03;4.93;;;;;;;10.17;100.00;99629.75;4863276;29;20422;-83
2022/11/07 11:04:56;;;;;;;8.48;5.05;;;;;;;10.21;100.00;99633.88;4879913;29;20033;-83
2022/11/07 11:07:40;;;;;;;;;;;;;;;10.39;100.00;99642.66;4863758;29;20037;-83
2022/11/07 11:10:27;;;;;;;7.65;5.00;;;;;;;10.41;100.00;99621.75;4862899;29;20241;-83
2022/11/07 11:12:53;;;;;;;8.13;4.47;;;;;;;10.47;100.00;99624.06;4862749;29;20021;-83
2022/11/07 11:15:21;;;;;;;6.85;4.50;;;;;;;10.52;100.00;99616.03;4879938;29;20454;-83
2022/11/07 11:18:00;;;;;;;6.53;4.72;;;;;;;10.53;100.00;99628.13;4863173;29;20025;-83
2022/11/07 11:20:34;;;;;;;6.47;4.60;;;;;;;10.58;100.00;99640.06;4862550;29;20024;-83
2022/11/07 11:23:04;;;;;;;10.82;5.30;;;;;;;10.61;100.00;99629.47;4879834;29;20021;-83
2022/11/07 11:25:30;;;;;;;11.65;5.97;;;;;;;10.69;100.00;99621.28;4879839;29;20033;-83
2022/11/07 11:28:06;;;;;;;7.72;4.75;;;;;;;10.70;99.62;99623.84;4879444;29;20025;-83
2022/11/07 11:30:34;;;;;;;8.52;5.18;;;;;;;10.67;99.20;99616.16;4862723;29;20025;-83
2022/11/07 11:33:20;;;;;;;8.95;4.35;;;;;;;10.59;99.52;99615.69;4862633;29;20112;-83